sensor_id;sensor_type;location;lat;lon;timestamp;P1;durP1;ratioP1;P2;durP2;ratioP2
17390;SDS011;8813;54.444;18.446;2023-07-13T00:00:07;2.50;;;2.50;;
17390;SDS011;8813;54.444;18.446;2023-07-13T00:02:35;2.60;;;2.60;;
17390;SDS011;8813;54.444;18.446;2023-07-13T00:05:03;2.00;;;2.00;;
17390;SDS011;8813;54.444;18.446;2023-07-13T00:07:31;2.90;;;2.88;;
17390;SDS011;8813;54.444;18.446;2023-07-13T00:09:58;2.25;;;2.25;;
17390;SDS011;8813;54.444;18.446;2023-07-13T00:12:28;2.10;;;2.10;;
17390;SDS011;8813;54.444;18.446;2023-07-13T00:14:56;1.90;;;1.90;;
17390;SDS011;8813;54.444;18.446;2023-07-13T00:17:23;1.80;;;1.80;;
17390;SDS011;8813;54.444;18.446;2023-07-13T00:19:50;1.90;;;1.90;;
17390;SDS011;8813;54.444;18.446;2023-07-13T00:22:18;1.70;;;1.70;;
17390;SDS011;8813;54.444;18.446;2023-07-13T00:24:45;1.70;;;1.70;;
17390;SDS011;8813;54.444;18.446;2023-07-13T00:27:12;1.80;;;1.80;;
17390;SDS011;8813;54.444;18.446;2023-07-13T00:29:40;2.10;;;2.10;;
17390;SDS011;8813;54.444;18.446;2023-07-13T00:32:08;1.90;;;1.90;;
17390;SDS011;8813;54.444;18.446;2023-07-13T00:34:36;2.40;;;2.40;;
17390;SDS011;8813;54.444;18.446;2023-07-13T00:37:03;2.10;;;2.10;;
17390;SDS011;8813;54.444;18.446;2023-07-13T00:39:31;2.08;;;2.08;;
17390;SDS011;8813;54.444;18.446;2023-07-13T00:41:58;2.30;;;2.30;;
17390;SDS011;8813;54.444;18.446;2023-07-13T00:44:25;2.10;;;2.10;;
17390;SDS011;8813;54.444;18.446;2023-07-13T00:46:54;2.20;;;2.20;;
17390;SDS011;8813;54.444;18.446;2023-07-13T00:49:24;2.20;;;2.20;;
17390;SDS011;8813;54.444;18.446;2023-07-13T00:51:53;2.10;;;2.10;;
17390;SDS011;8813;54.444;18.446;2023-07-13T00:54:23;2.13;;;2.13;;
17390;SDS011;8813;54.444;18.446;2023-07-13T00:56:51;2.22;;;2.22;;
17390;SDS011;8813;54.444;18.446;2023-07-13T00:59:21;2.10;;;2.10;;
17390;SDS011;8813;54.444;18.446;2023-07-13T01:01:49;1.88;;;1.88;;
17390;SDS011;8813;54.444;18.446;2023-07-13T01:04:17;1.88;;;1.88;;
17390;SDS011;8813;54.444;18.446;2023-07-13T01:06:45;1.90;;;1.90;;
17390;SDS011;8813;54.444;18.446;2023-07-13T01:09:12;1.92;;;1.92;;
17390;SDS011;8813;54.444;18.446;2023-07-13T01:11:41;2.00;;;2.00;;
17390;SDS011;8813;54.444;18.446;2023-07-13T01:14:10;2.10;;;2.10;;
17390;SDS011;8813;54.444;18.446;2023-07-13T01:16:37;2.00;;;2.00;;
17390;SDS011;8813;54.444;18.446;2023-07-13T01:19:07;2.08;;;2.08;;
17390;SDS011;8813;54.444;18.446;2023-07-13T01:21:42;2.28;;;2.28;;
17390;SDS011;8813;54.444;18.446;2023-07-13T01:24:09;2.10;;;2.10;;
17390;SDS011;8813;54.444;18.446;2023-07-13T01:26:36;1.90;;;1.90;;
17390;SDS011;8813;54.444;18.446;2023-07-13T01:29:02;2.25;;;2.25;;
17390;SDS011;8813;54.444;18.446;2023-07-13T01:31:29;2.00;;;2.00;;
17390;SDS011;8813;54.444;18.446;2023-07-13T01:33:56;2.00;;;2.00;;
17390;SDS011;8813;54.444;18.446;2023-07-13T01:36:24;2.53;;;2.53;;
17390;SDS011;8813;54.444;18.446;2023-07-13T01:38:52;2.65;;;2.65;;
17390;SDS011;8813;54.444;18.446;2023-07-13T01:41:19;2.60;;;2.60;;
17390;SDS011;8813;54.444;18.446;2023-07-13T01:43:46;2.47;;;2.47;;
17390;SDS011;8813;54.444;18.446;2023-07-13T01:46:13;2.60;;;2.60;;
17390;SDS011;8813;54.444;18.446;2023-07-13T01:48:40;2.40;;;2.40;;
17390;SDS011;8813;54.444;18.446;2023-07-13T01:51:06;2.30;;;2.30;;
17390;SDS011;8813;54.444;18.446;2023-07-13T01:53:33;3.03;;;3.03;;
17390;SDS011;8813;54.444;18.446;2023-07-13T01:56:02;2.13;;;2.13;;
17390;SDS011;8813;54.444;18.446;2023-07-13T01:58:28;2.60;;;2.60;;
17390;SDS011;8813;54.444;18.446;2023-07-13T02:00:54;2.50;;;2.50;;
17390;SDS011;8813;54.444;18.446;2023-07-13T02:03:21;2.65;;;2.65;;
17390;SDS011;8813;54.444;18.446;2023-07-13T02:05:49;2.70;;;2.70;;
17390;SDS011;8813;54.444;18.446;2023-07-13T02:08:16;2.53;;;2.53;;
17390;SDS011;8813;54.444;18.446;2023-07-13T02:10:42;2.67;;;2.67;;
17390;SDS011;8813;54.444;18.446;2023-07-13T02:13:11;2.50;;;2.50;;
17390;SDS011;8813;54.444;18.446;2023-07-13T02:15:38;2.30;;;2.30;;
17390;SDS011;8813;54.444;18.446;2023-07-13T02:18:06;2.40;;;2.40;;
17390;SDS011;8813;54.444;18.446;2023-07-13T02:20:33;2.20;;;2.20;;
17390;SDS011;8813;54.444;18.446;2023-07-13T02:23:00;2.40;;;2.40;;
17390;SDS011;8813;54.444;18.446;2023-07-13T02:25:27;2.30;;;2.30;;
17390;SDS011;8813;54.444;18.446;2023-07-13T02:27:54;2.22;;;2.22;;
17390;SDS011;8813;54.444;18.446;2023-07-13T02:30:23;2.15;;;2.15;;
17390;SDS011;8813;54.444;18.446;2023-07-13T02:32:50;2.20;;;2.20;;
17390;SDS011;8813;54.444;18.446;2023-07-13T02:35:17;2.10;;;2.10;;
17390;SDS011;8813;54.444;18.446;2023-07-13T02:37:44;2.10;;;2.10;;
17390;SDS011;8813;54.444;18.446;2023-07-13T02:40:11;2.40;;;2.40;;
17390;SDS011;8813;54.444;18.446;2023-07-13T02:42:38;2.60;;;2.60;;
17390;SDS011;8813;54.444;18.446;2023-07-13T02:45:06;2.53;;;2.53;;
17390;SDS011;8813;54.444;18.446;2023-07-13T02:47:35;2.70;;;2.70;;
17390;SDS011;8813;54.444;18.446;2023-07-13T02:50:03;2.50;;;2.50;;
17390;SDS011;8813;54.444;18.446;2023-07-13T02:52:30;2.83;;;2.83;;
17390;SDS011;8813;54.444;18.446;2023-07-13T02:54:57;2.72;;;2.72;;
17390;SDS011;8813;54.444;18.446;2023-07-13T02:57:24;2.80;;;2.80;;
17390;SDS011;8813;54.444;18.446;2023-07-13T02:59:52;2.80;;;2.80;;
17390;SDS011;8813;54.444;18.446;2023-07-13T03:02:20;3.03;;;3.03;;
17390;SDS011;8813;54.444;18.446;2023-07-13T03:04:48;2.80;;;2.80;;
17390;SDS011;8813;54.444;18.446;2023-07-13T03:07:15;2.90;;;2.90;;
17390;SDS011;8813;54.444;18.446;2023-07-13T03:09:42;2.83;;;2.83;;
17390;SDS011;8813;54.444;18.446;2023-07-13T03:12:09;3.00;;;3.00;;
17390;SDS011;8813;54.444;18.446;2023-07-13T03:14:36;2.90;;;2.90;;
17390;SDS011;8813;54.444;18.446;2023-07-13T03:17:03;2.90;;;2.90;;
17390;SDS011;8813;54.444;18.446;2023-07-13T03:19:31;2.75;;;2.75;;
17390;SDS011;8813;54.444;18.446;2023-07-13T03:21:59;2.80;;;2.80;;
17390;SDS011;8813;54.444;18.446;2023-07-13T03:24:26;2.70;;;2.70;;
17390;SDS011;8813;54.444;18.446;2023-07-13T03:26:53;2.70;;;2.70;;
17390;SDS011;8813;54.444;18.446;2023-07-13T03:29:20;2.80;;;2.80;;
17390;SDS011;8813;54.444;18.446;2023-07-13T03:31:47;2.70;;;2.70;;
17390;SDS011;8813;54.444;18.446;2023-07-13T03:34:14;2.70;;;2.70;;
17390;SDS011;8813;54.444;18.446;2023-07-13T03:36:41;2.60;;;2.60;;
17390;SDS011;8813;54.444;18.446;2023-07-13T03:39:09;2.70;;;2.70;;
17390;SDS011;8813;54.444;18.446;2023-07-13T03:41:36;2.67;;;2.67;;
17390;SDS011;8813;54.444;18.446;2023-07-13T03:44:03;2.60;;;2.60;;
17390;SDS011;8813;54.444;18.446;2023-07-13T03:46:30;2.80;;;2.80;;
17390;SDS011;8813;54.444;18.446;2023-07-13T03:48:58;2.70;;;2.70;;
17390;SDS011;8813;54.444;18.446;2023-07-13T03:51:25;2.60;;;2.60;;
17390;SDS011;8813;54.444;18.446;2023-07-13T03:53:52;2.40;;;2.40;;
17390;SDS011;8813;54.444;18.446;2023-07-13T03:56:21;2.60;;;2.60;;
17390;SDS011;8813;54.444;18.446;2023-07-13T03:58:48;2.53;;;2.53;;
17390;SDS011;8813;54.444;18.446;2023-07-13T04:01:16;2.78;;;2.78;;
17390;SDS011;8813;54.444;18.446;2023-07-13T04:03:44;2.53;;;2.53;;
17390;SDS011;8813;54.444;18.446;2023-07-13T04:06:13;2.40;;;2.40;;
17390;SDS011;8813;54.444;18.446;2023-07-13T04:08:46;2.30;;;2.30;;
17390;SDS011;8813;54.444;18.446;2023-07-13T04:11:15;2.40;;;2.40;;
17390;SDS011;8813;54.444;18.446;2023-07-13T04:13:43;2.30;;;2.30;;
17390;SDS011;8813;54.444;18.446;2023-07-13T04:16:11;2.38;;;2.38;;
17390;SDS011;8813;54.444;18.446;2023-07-13T04:18:38;2.20;;;2.20;;
17390;SDS011;8813;54.444;18.446;2023-07-13T04:21:06;2.50;;;2.50;;
17390;SDS011;8813;54.444;18.446;2023-07-13T04:23:34;2.10;;;2.10;;
17390;SDS011;8813;54.444;18.446;2023-07-13T04:26:00;2.10;;;2.10;;
17390;SDS011;8813;54.444;18.446;2023-07-13T04:28:28;2.42;;;2.42;;
17390;SDS011;8813;54.444;18.446;2023-07-13T04:30:57;2.10;;;2.10;;
17390;SDS011;8813;54.444;18.446;2023-07-13T04:33:25;2.10;;;2.10;;
17390;SDS011;8813;54.444;18.446;2023-07-13T04:35:54;2.08;;;2.08;;
17390;SDS011;8813;54.444;18.446;2023-07-13T04:38:23;2.10;;;2.10;;
17390;SDS011;8813;54.444;18.446;2023-07-13T04:40:54;2.05;;;2.05;;
17390;SDS011;8813;54.444;18.446;2023-07-13T04:43:22;1.90;;;1.90;;
17390;SDS011;8813;54.444;18.446;2023-07-13T04:45:49;2.00;;;2.00;;
17390;SDS011;8813;54.444;18.446;2023-07-13T04:48:18;1.95;;;1.95;;
17390;SDS011;8813;54.444;18.446;2023-07-13T04:50:46;1.80;;;1.80;;
17390;SDS011;8813;54.444;18.446;2023-07-13T04:53:15;1.90;;;1.90;;
17390;SDS011;8813;54.444;18.446;2023-07-13T04:55:42;1.90;;;1.90;;
17390;SDS011;8813;54.444;18.446;2023-07-13T04:58:09;1.65;;;1.65;;
17390;SDS011;8813;54.444;18.446;2023-07-13T05:00:36;1.92;;;1.92;;
17390;SDS011;8813;54.444;18.446;2023-07-13T05:03:02;1.90;;;1.90;;
17390;SDS011;8813;54.444;18.446;2023-07-13T05:05:31;2.00;;;2.00;;
17390;SDS011;8813;54.444;18.446;2023-07-13T05:07:59;2.10;;;2.10;;
17390;SDS011;8813;54.444;18.446;2023-07-13T05:10:26;1.88;;;1.88;;
17390;SDS011;8813;54.444;18.446;2023-07-13T05:12:54;1.85;;;1.85;;
17390;SDS011;8813;54.444;18.446;2023-07-13T05:15:21;1.70;;;1.70;;
17390;SDS011;8813;54.444;18.446;2023-07-13T05:17:48;1.70;;;1.70;;
17390;SDS011;8813;54.444;18.446;2023-07-13T05:20:16;1.70;;;1.70;;
17390;SDS011;8813;54.444;18.446;2023-07-13T05:22:45;1.50;;;1.50;;
17390;SDS011;8813;54.444;18.446;2023-07-13T05:25:13;1.40;;;1.40;;
17390;SDS011;8813;54.444;18.446;2023-07-13T05:27:40;1.50;;;1.50;;
17390;SDS011;8813;54.444;18.446;2023-07-13T05:30:07;1.77;;;1.77;;
17390;SDS011;8813;54.444;18.446;2023-07-13T05:32:37;1.50;;;1.50;;
17390;SDS011;8813;54.444;18.446;2023-07-13T05:35:04;1.60;;;1.60;;
17390;SDS011;8813;54.444;18.446;2023-07-13T05:37:31;1.50;;;1.50;;
17390;SDS011;8813;54.444;18.446;2023-07-13T05:39:59;1.50;;;1.50;;
17390;SDS011;8813;54.444;18.446;2023-07-13T05:42:26;1.52;;;1.52;;
17390;SDS011;8813;54.444;18.446;2023-07-13T05:44:53;1.30;;;1.30;;
17390;SDS011;8813;54.444;18.446;2023-07-13T05:47:20;1.63;;;1.63;;
17390;SDS011;8813;54.444;18.446;2023-07-13T05:49:47;1.40;;;1.40;;
17390;SDS011;8813;54.444;18.446;2023-07-13T05:52:14;1.50;;;1.50;;
17390;SDS011;8813;54.444;18.446;2023-07-13T05:54:41;1.27;;;1.27;;
17390;SDS011;8813;54.444;18.446;2023-07-13T05:57:09;1.30;;;1.30;;
17390;SDS011;8813;54.444;18.446;2023-07-13T05:59:36;1.30;;;1.30;;
17390;SDS011;8813;54.444;18.446;2023-07-13T06:02:03;1.50;;;1.50;;
17390;SDS011;8813;54.444;18.446;2023-07-13T06:04:30;1.20;;;1.20;;
17390;SDS011;8813;54.444;18.446;2023-07-13T06:06:58;1.17;;;1.17;;
17390;SDS011;8813;54.444;18.446;2023-07-13T06:09:25;1.30;;;1.30;;
17390;SDS011;8813;54.444;18.446;2023-07-13T06:11:52;1.20;;;1.20;;
17390;SDS011;8813;54.444;18.446;2023-07-13T06:14:20;1.10;;;1.10;;
17390;SDS011;8813;54.444;18.446;2023-07-13T06:16:47;1.48;;;1.48;;
17390;SDS011;8813;54.444;18.446;2023-07-13T06:19:15;1.17;;;1.10;;
17390;SDS011;8813;54.444;18.446;2023-07-13T06:21:42;1.55;;;1.55;;
17390;SDS011;8813;54.444;18.446;2023-07-13T06:24:09;2.80;;;1.88;;
17390;SDS011;8813;54.444;18.446;2023-07-13T06:26:36;1.15;;;1.15;;
17390;SDS011;8813;54.444;18.446;2023-07-13T06:29:02;1.20;;;1.20;;
17390;SDS011;8813;54.444;18.446;2023-07-13T06:31:31;1.30;;;1.30;;
17390;SDS011;8813;54.444;18.446;2023-07-13T06:33:58;1.10;;;1.10;;
17390;SDS011;8813;54.444;18.446;2023-07-13T06:36:25;1.10;;;1.10;;
17390;SDS011;8813;54.444;18.446;2023-07-13T06:38:52;1.02;;;1.02;;
17390;SDS011;8813;54.444;18.446;2023-07-13T06:41:19;1.02;;;1.02;;
17390;SDS011;8813;54.444;18.446;2023-07-13T06:43:47;1.40;;;1.40;;
17390;SDS011;8813;54.444;18.446;2023-07-13T06:46:14;1.00;;;1.00;;
17390;SDS011;8813;54.444;18.446;2023-07-13T06:48:42;1.00;;;1.00;;
17390;SDS011;8813;54.444;18.446;2023-07-13T06:51:09;1.10;;;1.10;;
17390;SDS011;8813;54.444;18.446;2023-07-13T06:53:36;1.10;;;1.10;;
17390;SDS011;8813;54.444;18.446;2023-07-13T06:56:03;1.05;;;1.05;;
17390;SDS011;8813;54.444;18.446;2023-07-13T06:58:31;0.77;;;0.77;;
17390;SDS011;8813;54.444;18.446;2023-07-13T07:00:59;0.82;;;0.82;;
17390;SDS011;8813;54.444;18.446;2023-07-13T07:03:26;1.00;;;1.00;;
17390;SDS011;8813;54.444;18.446;2023-07-13T07:05:55;0.90;;;0.90;;
17390;SDS011;8813;54.444;18.446;2023-07-13T07:08:27;0.88;;;0.88;;
17390;SDS011;8813;54.444;18.446;2023-07-13T07:10:54;1.10;;;1.10;;
17390;SDS011;8813;54.444;18.446;2023-07-13T07:13:21;1.00;;;1.00;;
17390;SDS011;8813;54.444;18.446;2023-07-13T07:15:48;1.00;;;1.00;;
17390;SDS011;8813;54.444;18.446;2023-07-13T07:18:16;0.90;;;0.90;;
17390;SDS011;8813;54.444;18.446;2023-07-13T07:20:43;1.00;;;1.00;;
17390;SDS011;8813;54.444;18.446;2023-07-13T07:23:11;0.90;;;0.90;;
17390;SDS011;8813;54.444;18.446;2023-07-13T07:25:39;1.60;;;1.50;;
17390;SDS011;8813;54.444;18.446;2023-07-13T07:28:07;0.80;;;0.80;;
17390;SDS011;8813;54.444;18.446;2023-07-13T07:30:34;0.90;;;0.90;;
17390;SDS011;8813;54.444;18.446;2023-07-13T07:33:01;0.93;;;0.93;;
17390;SDS011;8813;54.444;18.446;2023-07-13T07:35:28;1.10;;;1.10;;
17390;SDS011;8813;54.444;18.446;2023-07-13T07:37:55;0.80;;;0.80;;
17390;SDS011;8813;54.444;18.446;2023-07-13T07:40:24;0.90;;;0.90;;
17390;SDS011;8813;54.444;18.446;2023-07-13T07:42:51;0.90;;;0.90;;
17390;SDS011;8813;54.444;18.446;2023-07-13T07:45:18;0.80;;;0.80;;
17390;SDS011;8813;54.444;18.446;2023-07-13T07:47:45;1.08;;;1.08;;
17390;SDS011;8813;54.444;18.446;2023-07-13T07:50:12;0.90;;;0.90;;
17390;SDS011;8813;54.444;18.446;2023-07-13T07:52:39;2.08;;;1.10;;
17390;SDS011;8813;54.444;18.446;2023-07-13T07:55:07;1.10;;;1.10;;
17390;SDS011;8813;54.444;18.446;2023-07-13T07:57:35;1.10;;;1.10;;
17390;SDS011;8813;54.444;18.446;2023-07-13T08:00:03;1.10;;;1.10;;
17390;SDS011;8813;54.444;18.446;2023-07-13T08:02:30;1.23;;;1.23;;
17390;SDS011;8813;54.444;18.446;2023-07-13T08:04:57;1.10;;;1.10;;
17390;SDS011;8813;54.444;18.446;2023-07-13T08:07:24;0.90;;;0.90;;
17390;SDS011;8813;54.444;18.446;2023-07-13T08:09:51;0.90;;;0.90;;
17390;SDS011;8813;54.444;18.446;2023-07-13T08:12:18;0.90;;;0.90;;
17390;SDS011;8813;54.444;18.446;2023-07-13T08:14:47;0.90;;;0.90;;
17390;SDS011;8813;54.444;18.446;2023-07-13T08:17:18;1.00;;;1.00;;
17390;SDS011;8813;54.444;18.446;2023-07-13T08:19:45;0.80;;;0.80;;
17390;SDS011;8813;54.444;18.446;2023-07-13T08:22:12;0.80;;;0.80;;
17390;SDS011;8813;54.444;18.446;2023-07-13T08:24:39;0.82;;;0.82;;
17390;SDS011;8813;54.444;18.446;2023-07-13T08:27:07;0.80;;;0.80;;
17390;SDS011;8813;54.444;18.446;2023-07-13T08:29:34;1.10;;;1.10;;
17390;SDS011;8813;54.444;18.446;2023-07-13T08:32:03;1.20;;;1.20;;
17390;SDS011;8813;54.444;18.446;2023-07-13T08:34:31;0.90;;;0.90;;
17390;SDS011;8813;54.444;18.446;2023-07-13T08:36:58;1.35;;;1.35;;
17390;SDS011;8813;54.444;18.446;2023-07-13T08:39:25;1.10;;;1.10;;
17390;SDS011;8813;54.444;18.446;2023-07-13T08:41:54;3.05;;;2.05;;
17390;SDS011;8813;54.444;18.446;2023-07-13T08:44:25;0.90;;;0.90;;
17390;SDS011;8813;54.444;18.446;2023-07-13T08:46:56;1.38;;;1.38;;
17390;SDS011;8813;54.444;18.446;2023-07-13T08:49:26;1.00;;;1.00;;
17390;SDS011;8813;54.444;18.446;2023-07-13T08:51:54;1.45;;;1.45;;
17390;SDS011;8813;54.444;18.446;2023-07-13T08:54:26;1.00;;;1.00;;
17390;SDS011;8813;54.444;18.446;2023-07-13T08:56:56;1.00;;;1.00;;
17390;SDS011;8813;54.444;18.446;2023-07-13T08:59:24;2.65;;;1.45;;
17390;SDS011;8813;54.444;18.446;2023-07-13T09:01:59;0.80;;;0.80;;
17390;SDS011;8813;54.444;18.446;2023-07-13T09:04:39;0.80;;;0.80;;
17390;SDS011;8813;54.444;18.446;2023-07-13T09:07:11;0.80;;;0.80;;
17390;SDS011;8813;54.444;18.446;2023-07-13T09:09:46;1.02;;;1.02;;
17390;SDS011;8813;54.444;18.446;2023-07-13T09:12:19;0.93;;;0.93;;
17390;SDS011;8813;54.444;18.446;2023-07-13T09:14:51;2.45;;;2.35;;
17390;SDS011;8813;54.444;18.446;2023-07-13T09:17:21;0.90;;;0.90;;
17390;SDS011;8813;54.444;18.446;2023-07-13T09:19:54;0.90;;;0.90;;
17390;SDS011;8813;54.444;18.446;2023-07-13T09:22:25;1.00;;;1.00;;
17390;SDS011;8813;54.444;18.446;2023-07-13T09:24:55;0.80;;;0.80;;
17390;SDS011;8813;54.444;18.446;2023-07-13T09:27:27;1.10;;;1.10;;
17390;SDS011;8813;54.444;18.446;2023-07-13T09:29:58;1.10;;;1.10;;
17390;SDS011;8813;54.444;18.446;2023-07-13T09:32:30;1.40;;;1.40;;
17390;SDS011;8813;54.444;18.446;2023-07-13T09:34:59;1.33;;;1.33;;
17390;SDS011;8813;54.444;18.446;2023-07-13T09:37:29;1.00;;;1.00;;
17390;SDS011;8813;54.444;18.446;2023-07-13T09:39:58;1.02;;;1.02;;
17390;SDS011;8813;54.444;18.446;2023-07-13T09:42:26;1.10;;;1.10;;
17390;SDS011;8813;54.444;18.446;2023-07-13T09:44:54;0.90;;;0.90;;
17390;SDS011;8813;54.444;18.446;2023-07-13T09:47:23;0.88;;;0.88;;
17390;SDS011;8813;54.444;18.446;2023-07-13T09:49:56;0.80;;;0.80;;
17390;SDS011;8813;54.444;18.446;2023-07-13T09:52:26;0.80;;;0.80;;
17390;SDS011;8813;54.444;18.446;2023-07-13T09:54:54;0.70;;;0.70;;
17390;SDS011;8813;54.444;18.446;2023-07-13T09:57:24;0.70;;;0.70;;
17390;SDS011;8813;54.444;18.446;2023-07-13T09:59:53;0.70;;;0.70;;
17390;SDS011;8813;54.444;18.446;2023-07-13T10:02:26;0.80;;;0.80;;
17390;SDS011;8813;54.444;18.446;2023-07-13T10:04:57;1.73;;;1.73;;
17390;SDS011;8813;54.444;18.446;2023-07-13T10:07:27;0.90;;;0.90;;
17390;SDS011;8813;54.444;18.446;2023-07-13T10:09:54;0.80;;;0.80;;
17390;SDS011;8813;54.444;18.446;2023-07-13T10:12:22;0.80;;;0.80;;
17390;SDS011;8813;54.444;18.446;2023-07-13T10:14:50;1.00;;;1.00;;
17390;SDS011;8813;54.444;18.446;2023-07-13T10:17:23;0.90;;;0.90;;
17390;SDS011;8813;54.444;18.446;2023-07-13T10:19:55;1.02;;;1.02;;
17390;SDS011;8813;54.444;18.446;2023-07-13T10:22:27;0.80;;;0.80;;
17390;SDS011;8813;54.444;18.446;2023-07-13T10:24:57;0.90;;;0.90;;
17390;SDS011;8813;54.444;18.446;2023-07-13T10:27:26;0.82;;;0.82;;
17390;SDS011;8813;54.444;18.446;2023-07-13T10:29:59;0.95;;;0.95;;
17390;SDS011;8813;54.444;18.446;2023-07-13T10:32:27;0.80;;;0.80;;
17390;SDS011;8813;54.444;18.446;2023-07-13T10:34:54;0.80;;;0.80;;
17390;SDS011;8813;54.444;18.446;2023-07-13T10:37:27;0.80;;;0.80;;
17390;SDS011;8813;54.444;18.446;2023-07-13T10:39:56;1.00;;;1.00;;
17390;SDS011;8813;54.444;18.446;2023-07-13T10:42:25;1.00;;;1.00;;
17390;SDS011;8813;54.444;18.446;2023-07-13T10:44:54;1.17;;;1.17;;
17390;SDS011;8813;54.444;18.446;2023-07-13T10:47:21;0.90;;;0.90;;
17390;SDS011;8813;54.444;18.446;2023-07-13T10:49:49;1.10;;;1.10;;
17390;SDS011;8813;54.444;18.446;2023-07-13T10:57:59;0.80;;;0.80;;
17390;SDS011;8813;54.444;18.446;2023-07-13T11:00:30;1.00;;;1.00;;
17390;SDS011;8813;54.444;18.446;2023-07-13T11:02:59;1.20;;;1.20;;
17390;SDS011;8813;54.444;18.446;2023-07-13T11:05:28;1.00;;;1.00;;
17390;SDS011;8813;54.444;18.446;2023-07-13T11:08:04;0.80;;;0.80;;
17390;SDS011;8813;54.444;18.446;2023-07-13T11:10:47;0.90;;;0.90;;
17390;SDS011;8813;54.444;18.446;2023-07-13T11:16:42;0.90;;;0.90;;
17390;SDS011;8813;54.444;18.446;2023-07-13T11:19:24;1.00;;;1.00;;
17390;SDS011;8813;54.444;18.446;2023-07-13T11:22:08;0.80;;;0.80;;
17390;SDS011;8813;54.444;18.446;2023-07-13T11:33:03;1.30;;;1.30;;
17390;SDS011;8813;54.444;18.446;2023-07-13T11:35:40;0.95;;;0.95;;
17390;SDS011;8813;54.444;18.446;2023-07-13T11:38:12;0.90;;;0.90;;
17390;SDS011;8813;54.444;18.446;2023-07-13T11:40:44;1.00;;;1.00;;
17390;SDS011;8813;54.444;18.446;2023-07-13T11:43:12;0.80;;;0.80;;
17390;SDS011;8813;54.444;18.446;2023-07-13T11:45:41;1.10;;;1.10;;
17390;SDS011;8813;54.444;18.446;2023-07-13T11:50:54;0.80;;;0.80;;
17390;SDS011;8813;54.444;18.446;2023-07-13T11:53:23;0.80;;;0.80;;
17390;SDS011;8813;54.444;18.446;2023-07-13T11:55:54;0.90;;;0.90;;
17390;SDS011;8813;54.444;18.446;2023-07-13T11:58:24;1.00;;;1.00;;
17390;SDS011;8813;54.444;18.446;2023-07-13T12:00:53;1.13;;;1.13;;
17390;SDS011;8813;54.444;18.446;2023-07-13T12:03:22;0.82;;;0.82;;
17390;SDS011;8813;54.444;18.446;2023-07-13T12:05:57;0.80;;;0.80;;
17390;SDS011;8813;54.444;18.446;2023-07-13T12:08:26;0.80;;;0.80;;
17390;SDS011;8813;54.444;18.446;2023-07-13T12:10:58;0.90;;;0.90;;
17390;SDS011;8813;54.444;18.446;2023-07-13T12:13:27;0.90;;;0.90;;
17390;SDS011;8813;54.444;18.446;2023-07-13T12:15:56;0.70;;;0.70;;
17390;SDS011;8813;54.444;18.446;2023-07-13T12:18:23;1.10;;;1.10;;
17390;SDS011;8813;54.444;18.446;2023-07-13T12:20:56;0.70;;;0.70;;
17390;SDS011;8813;54.444;18.446;2023-07-13T12:23:25;0.80;;;0.80;;
17390;SDS011;8813;54.444;18.446;2023-07-13T12:25:54;0.70;;;0.70;;
17390;SDS011;8813;54.444;18.446;2023-07-13T12:28:31;1.00;;;1.00;;
17390;SDS011;8813;54.444;18.446;2023-07-13T12:30:59;1.10;;;1.10;;
17390;SDS011;8813;54.444;18.446;2023-07-13T12:33:28;1.00;;;1.00;;
17390;SDS011;8813;54.444;18.446;2023-07-13T12:35:56;0.70;;;0.70;;
17390;SDS011;8813;54.444;18.446;2023-07-13T12:38:24;0.70;;;0.70;;
17390;SDS011;8813;54.444;18.446;2023-07-13T12:40:51;0.80;;;0.80;;
17390;SDS011;8813;54.444;18.446;2023-07-13T12:43:19;0.70;;;0.70;;
17390;SDS011;8813;54.444;18.446;2023-07-13T12:45:58;0.80;;;0.80;;
17390;SDS011;8813;54.444;18.446;2023-07-13T12:48:26;0.73;;;0.73;;
17390;SDS011;8813;54.444;18.446;2023-07-13T12:50:54;0.80;;;0.80;;
17390;SDS011;8813;54.444;18.446;2023-07-13T12:53:22;0.80;;;0.80;;
17390;SDS011;8813;54.444;18.446;2023-07-13T12:55:50;0.85;;;0.85;;
17390;SDS011;8813;54.444;18.446;2023-07-13T12:58:21;0.90;;;0.90;;
17390;SDS011;8813;54.444;18.446;2023-07-13T13:00:51;0.90;;;0.90;;
17390;SDS011;8813;54.444;18.446;2023-07-13T13:03:25;1.00;;;1.00;;
17390;SDS011;8813;54.444;18.446;2023-07-13T13:05:58;1.00;;;1.00;;
17390;SDS011;8813;54.444;18.446;2023-07-13T13:08:28;1.00;;;1.00;;
17390;SDS011;8813;54.444;18.446;2023-07-13T13:10:55;1.10;;;1.10;;
17390;SDS011;8813;54.444;18.446;2023-07-13T13:13:22;0.90;;;0.90;;
17390;SDS011;8813;54.444;18.446;2023-07-13T13:15:49;0.90;;;0.90;;
17390;SDS011;8813;54.444;18.446;2023-07-13T13:18:18;0.80;;;0.80;;
17390;SDS011;8813;54.444;18.446;2023-07-13T13:20:47;0.90;;;0.90;;
17390;SDS011;8813;54.444;18.446;2023-07-13T13:23:15;1.10;;;1.10;;
17390;SDS011;8813;54.444;18.446;2023-07-13T13:25:44;1.10;;;1.10;;
17390;SDS011;8813;54.444;18.446;2023-07-13T13:28:14;1.00;;;1.00;;
17390;SDS011;8813;54.444;18.446;2023-07-13T13:30:43;1.02;;;1.02;;
17390;SDS011;8813;54.444;18.446;2023-07-13T13:33:11;0.80;;;0.80;;
17390;SDS011;8813;54.444;18.446;2023-07-13T13:35:39;0.70;;;0.70;;
17390;SDS011;8813;54.444;18.446;2023-07-13T13:38:11;0.90;;;0.90;;
17390;SDS011;8813;54.444;18.446;2023-07-13T13:40:39;0.75;;;0.75;;
17390;SDS011;8813;54.444;18.446;2023-07-13T13:43:16;0.80;;;0.80;;
17390;SDS011;8813;54.444;18.446;2023-07-13T13:45:45;0.70;;;0.70;;
17390;SDS011;8813;54.444;18.446;2023-07-13T13:48:14;0.70;;;0.70;;
17390;SDS011;8813;54.444;18.446;2023-07-13T13:50:42;1.00;;;1.00;;
17390;SDS011;8813;54.444;18.446;2023-07-13T13:53:13;0.93;;;0.93;;
17390;SDS011;8813;54.444;18.446;2023-07-13T13:55:40;0.80;;;0.80;;
17390;SDS011;8813;54.444;18.446;2023-07-13T13:58:09;0.70;;;0.70;;
17390;SDS011;8813;54.444;18.446;2023-07-13T14:00:36;1.10;;;1.10;;
17390;SDS011;8813;54.444;18.446;2023-07-13T14:03:03;1.48;;;1.48;;
17390;SDS011;8813;54.444;18.446;2023-07-13T14:05:32;0.80;;;0.80;;
17390;SDS011;8813;54.444;18.446;2023-07-13T14:07:59;0.80;;;0.80;;
17390;SDS011;8813;54.444;18.446;2023-07-13T14:10:27;0.90;;;0.90;;
17390;SDS011;8813;54.444;18.446;2023-07-13T14:12:55;0.80;;;0.80;;
17390;SDS011;8813;54.444;18.446;2023-07-13T14:15:23;0.70;;;0.70;;
17390;SDS011;8813;54.444;18.446;2023-07-13T14:17:52;0.90;;;0.90;;
17390;SDS011;8813;54.444;18.446;2023-07-13T14:20:20;0.80;;;0.80;;
17390;SDS011;8813;54.444;18.446;2023-07-13T14:22:49;0.90;;;0.90;;
17390;SDS011;8813;54.444;18.446;2023-07-13T14:25:17;0.80;;;0.80;;
17390;SDS011;8813;54.444;18.446;2023-07-13T14:27:46;0.90;;;0.90;;
17390;SDS011;8813;54.444;18.446;2023-07-13T14:30:17;4.78;;;2.13;;
17390;SDS011;8813;54.444;18.446;2023-07-13T14:32:45;0.90;;;0.90;;
17390;SDS011;8813;54.444;18.446;2023-07-13T14:35:14;0.80;;;0.80;;
17390;SDS011;8813;54.444;18.446;2023-07-13T14:37:42;0.82;;;0.82;;
17390;SDS011;8813;54.444;18.446;2023-07-13T14:40:13;0.90;;;0.90;;
17390;SDS011;8813;54.444;18.446;2023-07-13T14:42:40;0.82;;;0.82;;
17390;SDS011;8813;54.444;18.446;2023-07-13T14:45:13;0.80;;;0.80;;
17390;SDS011;8813;54.444;18.446;2023-07-13T14:47:41;0.80;;;0.80;;
17390;SDS011;8813;54.444;18.446;2023-07-13T14:50:13;0.80;;;0.80;;
17390;SDS011;8813;54.444;18.446;2023-07-13T14:52:42;0.70;;;0.70;;
17390;SDS011;8813;54.444;18.446;2023-07-13T14:55:10;0.70;;;0.70;;
17390;SDS011;8813;54.444;18.446;2023-07-13T14:57:38;0.90;;;0.90;;
17390;SDS011;8813;54.444;18.446;2023-07-13T15:00:05;1.02;;;1.02;;
17390;SDS011;8813;54.444;18.446;2023-07-13T15:02:42;1.00;;;1.00;;
17390;SDS011;8813;54.444;18.446;2023-07-13T15:05:15;0.80;;;0.80;;
17390;SDS011;8813;54.444;18.446;2023-07-13T15:07:43;0.88;;;0.88;;
17390;SDS011;8813;54.444;18.446;2023-07-13T15:10:14;0.80;;;0.80;;
17390;SDS011;8813;54.444;18.446;2023-07-13T15:12:41;0.90;;;0.90;;
17390;SDS011;8813;54.444;18.446;2023-07-13T15:15:09;0.90;;;0.90;;